<?xml version="1.0" encoding="UTF-8" standalone="no" ?>
<gpx xmlns="http://www.topografix.com/GPX/1/1" xmlns:xsi="http://www.w3.org/2001/XMLSchema-instance" xsi:schemaLocation="http://www.topografix.com/GPX/1/1 http://www.topografix.com/GPX/1/1/gpx.xsd" version="1.1" creator="VisuGPX - https://www.visugpx.com">
  <metadata>
    <name>exp_Mézilhac entre montagne et Boutières, Sardige, Lachamp,16 km.gpx</name>
    <desc><![CDATA[{DC1}Heure de fin	: 21:28:24
Durée totale	: 5h17:09
Moyenne globale	: 3.0 km/h
Pente moyenne	: 8.08 %
Aire incluse	: 662.6729 ha
Bornes emprise	: 44.8248 4.2906 ; 44.8001 4.3530
Détails par segments
distance  | durée    | vit.moy. | vit.max. | déniv. + | déniv -
   km     | hh:mn:ss |   km/h   |   km/h   |    m     |    m
    15.68 | 05:17:09 |      3.0 |      3.3 |      634 |     -632{DC2}

Metadata:
Nom: 13 à 16 km
Auteur: export
Description: (null)
comment ...
Groupe d'origine : 13 à 16 km]]></desc>
  </metadata>
  <trk>
    <name><![CDATA[Mézilhac entre montagne et Boutières, Sardige, Lachamp,16 km]]></name>
    <cmt><![CDATA[12:48:00]]></cmt>
    <desc><![CDATA[{DC1}Heure de fin	: 21:28:24
Durée totale	: 5h17:09
Moyenne globale	: 3.0 km/h
Pente moyenne	: 8.08 %
Aire incluse	: 662.6729 ha
Bornes emprise	: 44.8248 4.2906 ; 44.8001 4.3530
Détails par segments
distance  | durée    | vit.moy. | vit.max. | déniv. + | déniv -
   km     | hh:mn:ss |   km/h   |   km/h   |    m     |    m
    15.68 | 05:17:09 |      3.0 |      3.3 |      634 |     -632{DC2}

Metadata:
Nom: 13 à 16 km
Auteur: export
Description: (null)
comment ...
Groupe d'origine : 13 à 16 km]]></desc>
    <trkseg>
      <trkpt lat="44.80834" lon="4.35293">
        <ele>1144.3</ele>
        <time>2021-07-22T14:11:15Z</time>
      </trkpt>
      <trkpt lat="44.80823" lon="4.35279">
        <ele>1144.1</ele>
        <time>2021-07-22T14:11:35Z</time>
      </trkpt>
      <trkpt lat="44.80814" lon="4.35243">
        <ele>1141.2</ele>
        <time>2021-07-22T14:12:11Z</time>
      </trkpt>
      <trkpt lat="44.80787" lon="4.35233">
        <ele>1140.8</ele>
        <time>2021-07-22T14:12:49Z</time>
      </trkpt>
      <trkpt lat="44.80791" lon="4.35193">
        <ele>1139.9</ele>
        <time>2021-07-22T14:13:29Z</time>
      </trkpt>
      <trkpt lat="44.80805" lon="4.3509">
        <ele>1135.4</ele>
        <time>2021-07-22T14:15:08Z</time>
      </trkpt>
      <trkpt lat="44.80814" lon="4.35069">
        <ele>1134.6</ele>
        <time>2021-07-22T14:15:31Z</time>
      </trkpt>
      <trkpt lat="44.80819" lon="4.35046">
        <ele>1133.1</ele>
        <time>2021-07-22T14:15:54Z</time>
      </trkpt>
      <trkpt lat="44.80836" lon="4.35008">
        <ele>1131.6</ele>
        <time>2021-07-22T14:16:37Z</time>
      </trkpt>
      <trkpt lat="44.80837" lon="4.34991">
        <ele>1130.8</ele>
        <time>2021-07-22T14:16:53Z</time>
      </trkpt>
      <trkpt lat="44.80835" lon="4.34972">
        <ele>1130</ele>
        <time>2021-07-22T14:17:11Z</time>
      </trkpt>
      <trkpt lat="44.80825" lon="4.34931">
        <ele>1129</ele>
        <time>2021-07-22T14:17:52Z</time>
      </trkpt>
      <trkpt lat="44.80819" lon="4.34918">
        <ele>1128.8</ele>
        <time>2021-07-22T14:18:07Z</time>
      </trkpt>
      <trkpt lat="44.80812" lon="4.34882">
        <ele>1127.5</ele>
        <time>2021-07-22T14:18:42Z</time>
      </trkpt>
      <trkpt lat="44.80798" lon="4.34825">
        <ele>1123.2</ele>
        <time>2021-07-22T14:19:39Z</time>
      </trkpt>
      <trkpt lat="44.80783" lon="4.34759">
        <ele>1121</ele>
        <time>2021-07-22T14:20:45Z</time>
      </trkpt>
      <trkpt lat="44.80775" lon="4.34738">
        <ele>1120.5</ele>
        <time>2021-07-22T14:21:08Z</time>
      </trkpt>
      <trkpt lat="44.80772" lon="4.34695">
        <ele>1119.4</ele>
        <time>2021-07-22T14:21:49Z</time>
      </trkpt>
      <trkpt lat="44.80781" lon="4.34648">
        <ele>1118.7</ele>
        <time>2021-07-22T14:22:35Z</time>
      </trkpt>
      <trkpt lat="44.80791" lon="4.34635">
        <ele>1118.5</ele>
        <time>2021-07-22T14:22:53Z</time>
      </trkpt>
      <trkpt lat="44.80798" lon="4.34632">
        <ele>1118.7</ele>
        <time>2021-07-22T14:23:03Z</time>
      </trkpt>
      <trkpt lat="44.8081" lon="4.34585">
        <ele>1118.7</ele>
        <time>2021-07-22T14:23:52Z</time>
      </trkpt>
      <trkpt lat="44.80842" lon="4.34537">
        <ele>1118.3</ele>
        <time>2021-07-22T14:24:54Z</time>
      </trkpt>
      <trkpt lat="44.80849" lon="4.34524">
        <ele>1118.2</ele>
        <time>2021-07-22T14:25:10Z</time>
      </trkpt>
      <trkpt lat="44.80864" lon="4.34511">
        <ele>1117.9</ele>
        <time>2021-07-22T14:25:33Z</time>
      </trkpt>
      <trkpt lat="44.80879" lon="4.34504">
        <ele>1116.1</ele>
        <time>2021-07-22T14:25:54Z</time>
      </trkpt>
      <trkpt lat="44.80895" lon="4.34491">
        <ele>1115</ele>
        <time>2021-07-22T14:26:19Z</time>
      </trkpt>
      <trkpt lat="44.80903" lon="4.34479">
        <ele>1114.8</ele>
        <time>2021-07-22T14:26:34Z</time>
      </trkpt>
      <trkpt lat="44.80913" lon="4.3447">
        <ele>1113.5</ele>
        <time>2021-07-22T14:26:50Z</time>
      </trkpt>
      <trkpt lat="44.8096" lon="4.34403">
        <ele>1108.8</ele>
        <time>2021-07-22T14:28:19Z</time>
      </trkpt>
      <trkpt lat="44.80975" lon="4.34375">
        <ele>1106.3</ele>
        <time>2021-07-22T14:28:53Z</time>
      </trkpt>
      <trkpt lat="44.80997" lon="4.34363">
        <ele>1102.4</ele>
        <time>2021-07-22T14:29:24Z</time>
      </trkpt>
      <trkpt lat="44.8104" lon="4.34336">
        <ele>1099.7</ele>
        <time>2021-07-22T14:30:28Z</time>
      </trkpt>
      <trkpt lat="44.81054" lon="4.34334">
        <ele>1100.8</ele>
        <time>2021-07-22T14:30:47Z</time>
      </trkpt>
      <trkpt lat="44.81064" lon="4.34328">
        <ele>1099.7</ele>
        <time>2021-07-22T14:31:01Z</time>
      </trkpt>
      <trkpt lat="44.81094" lon="4.34288">
        <ele>1095.3</ele>
        <time>2021-07-22T14:31:56Z</time>
      </trkpt>
      <trkpt lat="44.81101" lon="4.34273">
        <ele>1093.3</ele>
        <time>2021-07-22T14:32:14Z</time>
      </trkpt>
      <trkpt lat="44.81106" lon="4.34252">
        <ele>1091</ele>
        <time>2021-07-22T14:32:35Z</time>
      </trkpt>
      <trkpt lat="44.81109" lon="4.34235">
        <ele>1089.2</ele>
        <time>2021-07-22T14:32:51Z</time>
      </trkpt>
      <trkpt lat="44.81108" lon="4.34218">
        <ele>1087.8</ele>
        <time>2021-07-22T14:33:08Z</time>
      </trkpt>
      <trkpt lat="44.81113" lon="4.34201">
        <ele>1085.5</ele>
        <time>2021-07-22T14:33:25Z</time>
      </trkpt>
      <trkpt lat="44.8111" lon="4.34191">
        <ele>1084.2</ele>
        <time>2021-07-22T14:33:35Z</time>
      </trkpt>
      <trkpt lat="44.81084" lon="4.34166">
        <ele>1078.8</ele>
        <time>2021-07-22T14:34:17Z</time>
      </trkpt>
      <trkpt lat="44.81086" lon="4.34151">
        <ele>1075</ele>
        <time>2021-07-22T14:34:34Z</time>
      </trkpt>
      <trkpt lat="44.81099" lon="4.34151">
        <ele>1074.5</ele>
        <time>2021-07-22T14:34:51Z</time>
      </trkpt>
      <trkpt lat="44.81138" lon="4.34126">
        <ele>1065.9</ele>
        <time>2021-07-22T14:35:49Z</time>
      </trkpt>
      <trkpt lat="44.81146" lon="4.34126">
        <ele>1065</ele>
        <time>2021-07-22T14:35:59Z</time>
      </trkpt>
      <trkpt lat="44.81153" lon="4.34123">
        <ele>1063.4</ele>
        <time>2021-07-22T14:36:09Z</time>
      </trkpt>
      <trkpt lat="44.81179" lon="4.34136">
        <ele>1062.7</ele>
        <time>2021-07-22T14:36:46Z</time>
      </trkpt>
      <trkpt lat="44.81186" lon="4.34151">
        <ele>1063.4</ele>
        <time>2021-07-22T14:37:03Z</time>
      </trkpt>
      <trkpt lat="44.81195" lon="4.34146">
        <ele>1060.6</ele>
        <time>2021-07-22T14:37:16Z</time>
      </trkpt>
      <trkpt lat="44.81204" lon="4.3413">
        <ele>1056.2</ele>
        <time>2021-07-22T14:37:35Z</time>
      </trkpt>
      <trkpt lat="44.81206" lon="4.34115">
        <ele>1053.1</ele>
        <time>2021-07-22T14:37:50Z</time>
      </trkpt>
      <trkpt lat="44.81199" lon="4.34106">
        <ele>1051.9</ele>
        <time>2021-07-22T14:38:02Z</time>
      </trkpt>
      <trkpt lat="44.81205" lon="4.3409">
        <ele>1046.7</ele>
        <time>2021-07-22T14:38:20Z</time>
      </trkpt>
      <trkpt lat="44.8122" lon="4.34087">
        <ele>1044.2</ele>
        <time>2021-07-22T14:38:40Z</time>
      </trkpt>
      <trkpt lat="44.81228" lon="4.34081">
        <ele>1041.4</ele>
        <time>2021-07-22T14:38:52Z</time>
      </trkpt>
      <trkpt lat="44.81257" lon="4.34069">
        <ele>1034.5</ele>
        <time>2021-07-22T14:39:32Z</time>
      </trkpt>
      <trkpt lat="44.81272" lon="4.34057">
        <ele>1031.3</ele>
        <time>2021-07-22T14:39:55Z</time>
      </trkpt>
      <trkpt lat="44.813" lon="4.3405">
        <ele>1028.1</ele>
        <time>2021-07-22T14:40:33Z</time>
      </trkpt>
      <trkpt lat="44.81329" lon="4.34028">
        <ele>1023.9</ele>
        <time>2021-07-22T14:41:17Z</time>
      </trkpt>
      <trkpt lat="44.81344" lon="4.3401">
        <ele>1019.5</ele>
        <time>2021-07-22T14:41:43Z</time>
      </trkpt>
      <trkpt lat="44.8139" lon="4.33987">
        <ele>1013</ele>
        <time>2021-07-22T14:42:49Z</time>
      </trkpt>
      <trkpt lat="44.81389" lon="4.3397">
        <ele>1009.3</ele>
        <time>2021-07-22T14:43:05Z</time>
      </trkpt>
      <trkpt lat="44.81414" lon="4.33973">
        <ele>1007.4</ele>
        <time>2021-07-22T14:43:39Z</time>
      </trkpt>
      <trkpt lat="44.8144" lon="4.3397">
        <ele>1003.2</ele>
        <time>2021-07-22T14:44:13Z</time>
      </trkpt>
      <trkpt lat="44.81454" lon="4.33958">
        <ele>997.7</ele>
        <time>2021-07-22T14:44:52Z</time>
      </trkpt>
      <trkpt lat="44.8145" lon="4.33945">
        <ele>997.3</ele>
        <time>2021-07-22T14:45:06Z</time>
      </trkpt>
      <trkpt lat="44.81435" lon="4.3393">
        <ele>993.8</ele>
        <time>2021-07-22T14:45:30Z</time>
      </trkpt>
      <trkpt lat="44.81456" lon="4.33913">
        <ele>987.8</ele>
        <time>2021-07-22T14:46:02Z</time>
      </trkpt>
      <trkpt lat="44.815" lon="4.33918">
        <ele>980.8</ele>
        <time>2021-07-22T14:47:01Z</time>
      </trkpt>
      <trkpt lat="44.81522" lon="4.33909">
        <ele>976.1</ele>
        <time>2021-07-22T14:47:32Z</time>
      </trkpt>
      <trkpt lat="44.81555" lon="4.33864">
        <ele>968.6</ele>
        <time>2021-07-22T14:48:33Z</time>
      </trkpt>
      <trkpt lat="44.81574" lon="4.3383">
        <ele>960.8</ele>
        <time>2021-07-22T14:49:14Z</time>
      </trkpt>
      <trkpt lat="44.81596" lon="4.33799">
        <ele>954.5</ele>
        <time>2021-07-22T14:49:56Z</time>
      </trkpt>
      <trkpt lat="44.81606" lon="4.33776">
        <ele>950.6</ele>
        <time>2021-07-22T14:50:21Z</time>
      </trkpt>
      <trkpt lat="44.81617" lon="4.33762">
        <ele>949.9</ele>
        <time>2021-07-22T14:50:41Z</time>
      </trkpt>
      <trkpt lat="44.81681" lon="4.33711">
        <ele>945.8</ele>
        <time>2021-07-22T14:52:19Z</time>
      </trkpt>
      <trkpt lat="44.81711" lon="4.33705">
        <ele>943.1</ele>
        <time>2021-07-22T14:53:00Z</time>
      </trkpt>
      <trkpt lat="44.81758" lon="4.33729">
        <ele>945.2</ele>
        <time>2021-07-22T14:54:06Z</time>
      </trkpt>
      <trkpt lat="44.81792" lon="4.33757">
        <ele>928.9</ele>
        <time>2021-07-22T14:54:59Z</time>
      </trkpt>
      <trkpt lat="44.81818" lon="4.33736">
        <ele>917.4</ele>
        <time>2021-07-22T14:55:39Z</time>
      </trkpt>
      <trkpt lat="44.81848" lon="4.33665">
        <ele>902.8</ele>
        <time>2021-07-22T14:56:57Z</time>
      </trkpt>
      <trkpt lat="44.81874" lon="4.33711">
        <ele>893.6</ele>
        <time>2021-07-22T14:57:53Z</time>
      </trkpt>
      <trkpt lat="44.81899" lon="4.33698">
        <ele>884.8</ele>
        <time>2021-07-22T14:58:28Z</time>
      </trkpt>
      <trkpt lat="44.81921" lon="4.3367">
        <ele>873.8</ele>
        <time>2021-07-22T14:59:08Z</time>
      </trkpt>
      <trkpt lat="44.81946" lon="4.33661">
        <ele>870.7</ele>
        <time>2021-07-22T14:59:42Z</time>
      </trkpt>
      <trkpt lat="44.81987" lon="4.33638">
        <ele>866.3</ele>
        <time>2021-07-22T15:00:41Z</time>
      </trkpt>
      <trkpt lat="44.81979" lon="4.33622">
        <ele>859.7</ele>
        <time>2021-07-22T15:01:00Z</time>
      </trkpt>
      <trkpt lat="44.81969" lon="4.33617">
        <ele>856.5</ele>
        <time>2021-07-22T15:01:14Z</time>
      </trkpt>
      <trkpt lat="44.81991" lon="4.33604">
        <ele>853.5</ele>
        <time>2021-07-22T15:01:46Z</time>
      </trkpt>
      <trkpt lat="44.8202" lon="4.33593">
        <ele>851</ele>
        <time>2021-07-22T15:02:27Z</time>
      </trkpt>
      <trkpt lat="44.82032" lon="4.33583">
        <ele>848.3</ele>
        <time>2021-07-22T15:02:46Z</time>
      </trkpt>
      <trkpt lat="44.82037" lon="4.33563">
        <ele>841.1</ele>
        <time>2021-07-22T15:03:16Z</time>
      </trkpt>
      <trkpt lat="44.82047" lon="4.33553">
        <ele>838.3</ele>
        <time>2021-07-22T15:03:33Z</time>
      </trkpt>
      <trkpt lat="44.82087" lon="4.33567">
        <ele>830.7</ele>
        <time>2021-07-22T15:04:28Z</time>
      </trkpt>
      <trkpt lat="44.82098" lon="4.33574">
        <ele>827.2</ele>
        <time>2021-07-22T15:04:44Z</time>
      </trkpt>
      <trkpt lat="44.82102" lon="4.33593">
        <ele>825.4</ele>
        <time>2021-07-22T15:05:03Z</time>
      </trkpt>
      <trkpt lat="44.8211" lon="4.33584">
        <ele>822.4</ele>
        <time>2021-07-22T15:05:17Z</time>
      </trkpt>
      <trkpt lat="44.82117" lon="4.3358">
        <ele>818.6</ele>
        <time>2021-07-22T15:05:27Z</time>
      </trkpt>
      <trkpt lat="44.82122" lon="4.33571">
        <ele>815.8</ele>
        <time>2021-07-22T15:05:38Z</time>
      </trkpt>
      <trkpt lat="44.82119" lon="4.33561">
        <ele>817.3</ele>
        <time>2021-07-22T15:05:48Z</time>
      </trkpt>
      <trkpt lat="44.82112" lon="4.33555">
        <ele>820.3</ele>
        <time>2021-07-22T15:05:59Z</time>
      </trkpt>
      <trkpt lat="44.8211" lon="4.3354">
        <ele>814.2</ele>
        <time>2021-07-22T15:06:13Z</time>
      </trkpt>
      <trkpt lat="44.82124" lon="4.3353">
        <ele>808.1</ele>
        <time>2021-07-22T15:06:34Z</time>
      </trkpt>
      <trkpt lat="44.82148" lon="4.33542">
        <ele>804.2</ele>
        <time>2021-07-22T15:07:08Z</time>
      </trkpt>
      <trkpt lat="44.82151" lon="4.33575">
        <ele>803.2</ele>
        <time>2021-07-22T15:07:40Z</time>
      </trkpt>
      <trkpt lat="44.82147" lon="4.3359">
        <ele>803.2</ele>
        <time>2021-07-22T15:07:56Z</time>
      </trkpt>
      <trkpt lat="44.82153" lon="4.33602">
        <ele>800.1</ele>
        <time>2021-07-22T15:08:10Z</time>
      </trkpt>
      <trkpt lat="44.82162" lon="4.33562">
        <ele>799.8</ele>
        <time>2021-07-22T15:08:50Z</time>
      </trkpt>
      <trkpt lat="44.82168" lon="4.33547">
        <ele>797.2</ele>
        <time>2021-07-22T15:09:06Z</time>
      </trkpt>
      <trkpt lat="44.82167" lon="4.33511">
        <ele>795.1</ele>
        <time>2021-07-22T15:09:40Z</time>
      </trkpt>
      <trkpt lat="44.82176" lon="4.33506">
        <ele>791.2</ele>
        <time>2021-07-22T15:09:59Z</time>
      </trkpt>
      <trkpt lat="44.82185" lon="4.33528">
        <ele>789.8</ele>
        <time>2021-07-22T15:10:23Z</time>
      </trkpt>
      <trkpt lat="44.82211" lon="4.33499">
        <ele>786.9</ele>
        <time>2021-07-22T15:11:14Z</time>
      </trkpt>
      <trkpt lat="44.82234" lon="4.33487">
        <ele>789.2</ele>
        <time>2021-07-22T15:11:47Z</time>
      </trkpt>
      <trkpt lat="44.82248" lon="4.3347">
        <ele>787.6</ele>
        <time>2021-07-22T15:12:12Z</time>
      </trkpt>
      <trkpt lat="44.8231" lon="4.33451">
        <ele>792.4</ele>
        <time>2021-07-22T15:13:37Z</time>
      </trkpt>
      <trkpt lat="44.82346" lon="4.33452">
        <ele>794.3</ele>
        <time>2021-07-22T15:14:25Z</time>
      </trkpt>
      <trkpt lat="44.82359" lon="4.33458">
        <ele>796.8</ele>
        <time>2021-07-22T15:14:43Z</time>
      </trkpt>
      <trkpt lat="44.82378" lon="4.33418">
        <ele>789.7</ele>
        <time>2021-07-22T15:15:31Z</time>
      </trkpt>
      <trkpt lat="44.82407" lon="4.33373">
        <ele>782.4</ele>
        <time>2021-07-22T15:16:29Z</time>
      </trkpt>
      <trkpt lat="44.82413" lon="4.33341">
        <ele>775.1</ele>
        <time>2021-07-22T15:17:00Z</time>
      </trkpt>
      <trkpt lat="44.82428" lon="4.33315">
        <ele>769.3</ele>
        <time>2021-07-22T15:17:32Z</time>
      </trkpt>
      <trkpt lat="44.82439" lon="4.33305">
        <ele>765.5</ele>
        <time>2021-07-22T15:17:49Z</time>
      </trkpt>
      <trkpt lat="44.82445" lon="4.33289">
        <ele>767.3</ele>
        <time>2021-07-22T15:18:06Z</time>
      </trkpt>
      <trkpt lat="44.82453" lon="4.33286">
        <ele>766.3</ele>
        <time>2021-07-22T15:18:17Z</time>
      </trkpt>
      <trkpt lat="44.82468" lon="4.33273">
        <ele>762.9</ele>
        <time>2021-07-22T15:18:41Z</time>
      </trkpt>
      <trkpt lat="44.82482" lon="4.33247">
        <ele>764</ele>
        <time>2021-07-22T15:19:12Z</time>
      </trkpt>
      <trkpt lat="44.8248" lon="4.33229">
        <ele>766.4</ele>
        <time>2021-07-22T15:19:29Z</time>
      </trkpt>
      <trkpt lat="44.82482" lon="4.33214">
        <ele>766.9</ele>
        <time>2021-07-22T15:19:44Z</time>
      </trkpt>
      <trkpt lat="44.82459" lon="4.33203">
        <ele>770.2</ele>
        <time>2021-07-22T15:20:17Z</time>
      </trkpt>
      <trkpt lat="44.82447" lon="4.33203">
        <ele>772.3</ele>
        <time>2021-07-22T15:20:34Z</time>
      </trkpt>
      <trkpt lat="44.82426" lon="4.33146">
        <ele>779</ele>
        <time>2021-07-22T15:21:35Z</time>
      </trkpt>
      <trkpt lat="44.82411" lon="4.33132">
        <ele>783.8</ele>
        <time>2021-07-22T15:23:16Z</time>
      </trkpt>
      <trkpt lat="44.82406" lon="4.33099">
        <ele>781.8</ele>
        <time>2021-07-22T15:23:48Z</time>
      </trkpt>
      <trkpt lat="44.82394" lon="4.33079">
        <ele>783.3</ele>
        <time>2021-07-22T15:24:13Z</time>
      </trkpt>
      <trkpt lat="44.82382" lon="4.33078">
        <ele>787.9</ele>
        <time>2021-07-22T15:24:29Z</time>
      </trkpt>
      <trkpt lat="44.82358" lon="4.33067">
        <ele>792.9</ele>
        <time>2021-07-22T15:25:02Z</time>
      </trkpt>
      <trkpt lat="44.82343" lon="4.33051">
        <ele>794.9</ele>
        <time>2021-07-22T15:25:28Z</time>
      </trkpt>
      <trkpt lat="44.82336" lon="4.33034">
        <ele>794.9</ele>
        <time>2021-07-22T15:25:46Z</time>
      </trkpt>
      <trkpt lat="44.82312" lon="4.33006">
        <ele>801</ele>
        <time>2021-07-22T15:26:28Z</time>
      </trkpt>
      <trkpt lat="44.82304" lon="4.32983">
        <ele>801.9</ele>
        <time>2021-07-22T15:26:52Z</time>
      </trkpt>
      <trkpt lat="44.82301" lon="4.32954">
        <ele>803.1</ele>
        <time>2021-07-22T15:27:20Z</time>
      </trkpt>
      <trkpt lat="44.82289" lon="4.32943">
        <ele>806.9</ele>
        <time>2021-07-22T15:27:39Z</time>
      </trkpt>
      <trkpt lat="44.82268" lon="4.32908">
        <ele>800</ele>
        <time>2021-07-22T15:28:22Z</time>
      </trkpt>
      <trkpt lat="44.8225" lon="4.32902">
        <ele>802.6</ele>
        <time>2021-07-22T15:28:47Z</time>
      </trkpt>
      <trkpt lat="44.82183" lon="4.32841">
        <ele>804.4</ele>
        <time>2021-07-22T15:30:34Z</time>
      </trkpt>
      <trkpt lat="44.82168" lon="4.32821">
        <ele>806.2</ele>
        <time>2021-07-22T15:31:01Z</time>
      </trkpt>
      <trkpt lat="44.82149" lon="4.32775">
        <ele>809.2</ele>
        <time>2021-07-22T15:31:52Z</time>
      </trkpt>
      <trkpt lat="44.8213" lon="4.3275">
        <ele>813.2</ele>
        <time>2021-07-22T15:32:26Z</time>
      </trkpt>
      <trkpt lat="44.82106" lon="4.32731">
        <ele>816.4</ele>
        <time>2021-07-22T15:33:03Z</time>
      </trkpt>
      <trkpt lat="44.821" lon="4.32713">
        <ele>816.7</ele>
        <time>2021-07-22T15:33:22Z</time>
      </trkpt>
      <trkpt lat="44.82108" lon="4.32678">
        <ele>814.5</ele>
        <time>2021-07-22T15:33:57Z</time>
      </trkpt>
      <trkpt lat="44.82104" lon="4.32643">
        <ele>817.1</ele>
        <time>2021-07-22T15:34:30Z</time>
      </trkpt>
      <trkpt lat="44.82115" lon="4.32578">
        <ele>818</ele>
        <time>2021-07-22T15:35:33Z</time>
      </trkpt>
      <trkpt lat="44.82121" lon="4.3248">
        <ele>823.6</ele>
        <time>2021-07-22T15:37:12Z</time>
      </trkpt>
      <trkpt lat="44.82125" lon="4.32419">
        <ele>825.9</ele>
        <time>2021-07-22T15:38:10Z</time>
      </trkpt>
      <trkpt lat="44.82122" lon="4.324">
        <ele>829.1</ele>
        <time>2021-07-22T15:38:29Z</time>
      </trkpt>
      <trkpt lat="44.82124" lon="4.32354">
        <ele>833.1</ele>
        <time>2021-07-22T15:39:13Z</time>
      </trkpt>
      <trkpt lat="44.82132" lon="4.32317">
        <ele>832.1</ele>
        <time>2021-07-22T15:39:49Z</time>
      </trkpt>
      <trkpt lat="44.82129" lon="4.32306">
        <ele>834.3</ele>
        <time>2021-07-22T15:40:00Z</time>
      </trkpt>
      <trkpt lat="44.82088" lon="4.32292">
        <ele>840.2</ele>
        <time>2021-07-22T15:40:57Z</time>
      </trkpt>
      <trkpt lat="44.82079" lon="4.32295">
        <ele>841.8</ele>
        <time>2021-07-22T15:41:09Z</time>
      </trkpt>
      <trkpt lat="44.82068" lon="4.32278">
        <ele>834.6</ele>
        <time>2021-07-22T15:41:33Z</time>
      </trkpt>
      <trkpt lat="44.82073" lon="4.32262">
        <ele>835.7</ele>
        <time>2021-07-22T15:41:50Z</time>
      </trkpt>
      <trkpt lat="44.82094" lon="4.32241">
        <ele>832.5</ele>
        <time>2021-07-22T15:42:24Z</time>
      </trkpt>
      <trkpt lat="44.82112" lon="4.32212">
        <ele>830.1</ele>
        <time>2021-07-22T15:43:00Z</time>
      </trkpt>
      <trkpt lat="44.82115" lon="4.3218">
        <ele>835.5</ele>
        <time>2021-07-22T15:43:31Z</time>
      </trkpt>
      <trkpt lat="44.82114" lon="4.32156">
        <ele>838.9</ele>
        <time>2021-07-22T15:43:54Z</time>
      </trkpt>
      <trkpt lat="44.82106" lon="4.32142">
        <ele>841.9</ele>
        <time>2021-07-22T15:44:11Z</time>
      </trkpt>
      <trkpt lat="44.82104" lon="4.32121">
        <ele>846</ele>
        <time>2021-07-22T15:44:31Z</time>
      </trkpt>
      <trkpt lat="44.82091" lon="4.32095">
        <ele>849.3</ele>
        <time>2021-07-22T15:45:01Z</time>
      </trkpt>
      <trkpt lat="44.82068" lon="4.32075">
        <ele>852.8</ele>
        <time>2021-07-22T15:45:37Z</time>
      </trkpt>
      <trkpt lat="44.82003" lon="4.32032">
        <ele>860.7</ele>
        <time>2021-07-22T15:47:13Z</time>
      </trkpt>
      <trkpt lat="44.81993" lon="4.32019">
        <ele>863.5</ele>
        <time>2021-07-22T15:47:31Z</time>
      </trkpt>
      <trkpt lat="44.81986" lon="4.31998">
        <ele>865.2</ele>
        <time>2021-07-22T15:47:53Z</time>
      </trkpt>
      <trkpt lat="44.82017" lon="4.32">
        <ele>876.1</ele>
        <time>2021-07-22T15:48:34Z</time>
      </trkpt>
      <trkpt lat="44.82031" lon="4.31997">
        <ele>881.9</ele>
        <time>2021-07-22T15:48:53Z</time>
      </trkpt>
      <trkpt lat="44.82064" lon="4.32005">
        <ele>885.7</ele>
        <time>2021-07-22T15:49:38Z</time>
      </trkpt>
      <trkpt lat="44.82087" lon="4.32015">
        <ele>884.2</ele>
        <time>2021-07-22T15:50:10Z</time>
      </trkpt>
      <trkpt lat="44.82096" lon="4.32011">
        <ele>883</ele>
        <time>2021-07-22T15:50:23Z</time>
      </trkpt>
      <trkpt lat="44.82081" lon="4.32">
        <ele>890.6</ele>
        <time>2021-07-22T15:50:51Z</time>
      </trkpt>
      <trkpt lat="44.82078" lon="4.31987">
        <ele>892.4</ele>
        <time>2021-07-22T15:51:04Z</time>
      </trkpt>
      <trkpt lat="44.82059" lon="4.31979">
        <ele>893</ele>
        <time>2021-07-22T15:51:31Z</time>
      </trkpt>
      <trkpt lat="44.82044" lon="4.31964">
        <ele>896.2</ele>
        <time>2021-07-22T15:51:56Z</time>
      </trkpt>
      <trkpt lat="44.8204" lon="4.31948">
        <ele>901.6</ele>
        <time>2021-07-22T15:52:12Z</time>
      </trkpt>
      <trkpt lat="44.82031" lon="4.31946">
        <ele>901.6</ele>
        <time>2021-07-22T15:52:24Z</time>
      </trkpt>
      <trkpt lat="44.82005" lon="4.31925">
        <ele>904.3</ele>
        <time>2021-07-22T15:53:05Z</time>
      </trkpt>
      <trkpt lat="44.81958" lon="4.31863">
        <ele>908.4</ele>
        <time>2021-07-22T15:54:32Z</time>
      </trkpt>
      <trkpt lat="44.81953" lon="4.31851">
        <ele>912.6</ele>
        <time>2021-07-22T15:54:45Z</time>
      </trkpt>
      <trkpt lat="44.81945" lon="4.31842">
        <ele>914.1</ele>
        <time>2021-07-22T15:54:59Z</time>
      </trkpt>
      <trkpt lat="44.81938" lon="4.31839">
        <ele>913.2</ele>
        <time>2021-07-22T15:55:09Z</time>
      </trkpt>
      <trkpt lat="44.81923" lon="4.31815">
        <ele>917.2</ele>
        <time>2021-07-22T15:55:39Z</time>
      </trkpt>
      <trkpt lat="44.81922" lon="4.31793">
        <ele>924.5</ele>
        <time>2021-07-22T15:56:00Z</time>
      </trkpt>
      <trkpt lat="44.81905" lon="4.31757">
        <ele>928.6</ele>
        <time>2021-07-22T15:56:41Z</time>
      </trkpt>
      <trkpt lat="44.819" lon="4.31712">
        <ele>938.8</ele>
        <time>2021-07-22T15:57:24Z</time>
      </trkpt>
      <trkpt lat="44.81888" lon="4.31689">
        <ele>938.5</ele>
        <time>2021-07-22T15:57:51Z</time>
      </trkpt>
      <trkpt lat="44.81866" lon="4.317">
        <ele>945</ele>
        <time>2021-07-22T15:58:22Z</time>
      </trkpt>
      <trkpt lat="44.81843" lon="4.31739">
        <ele>946.3</ele>
        <time>2021-07-22T15:59:10Z</time>
      </trkpt>
      <trkpt lat="44.81775" lon="4.31809">
        <ele>959.8</ele>
        <time>2021-07-22T16:01:03Z</time>
      </trkpt>
      <trkpt lat="44.81756" lon="4.31808">
        <ele>967.7</ele>
        <time>2021-07-22T16:01:28Z</time>
      </trkpt>
      <trkpt lat="44.81749" lon="4.31795">
        <ele>973.6</ele>
        <time>2021-07-22T16:01:43Z</time>
      </trkpt>
      <trkpt lat="44.81751" lon="4.31741">
        <ele>983.6</ele>
        <time>2021-07-22T16:02:35Z</time>
      </trkpt>
      <trkpt lat="44.81727" lon="4.31754">
        <ele>989.6</ele>
        <time>2021-07-22T16:03:09Z</time>
      </trkpt>
      <trkpt lat="44.81712" lon="4.31756">
        <ele>988.7</ele>
        <time>2021-07-22T16:03:29Z</time>
      </trkpt>
      <trkpt lat="44.81691" lon="4.31737">
        <ele>991.6</ele>
        <time>2021-07-22T16:04:02Z</time>
      </trkpt>
      <trkpt lat="44.81668" lon="4.31707">
        <ele>998.3</ele>
        <time>2021-07-22T16:04:44Z</time>
      </trkpt>
      <trkpt lat="44.81679" lon="4.31697">
        <ele>1003.9</ele>
        <time>2021-07-22T16:05:02Z</time>
      </trkpt>
      <trkpt lat="44.81695" lon="4.31675">
        <ele>1011.6</ele>
        <time>2021-07-22T16:05:31Z</time>
      </trkpt>
      <trkpt lat="44.81689" lon="4.31668">
        <ele>1013.6</ele>
        <time>2021-07-22T16:05:42Z</time>
      </trkpt>
      <trkpt lat="44.81668" lon="4.3166">
        <ele>1016.8</ele>
        <time>2021-07-22T16:06:11Z</time>
      </trkpt>
      <trkpt lat="44.81672" lon="4.31633">
        <ele>1027.6</ele>
        <time>2021-07-22T16:06:37Z</time>
      </trkpt>
      <trkpt lat="44.81668" lon="4.31612">
        <ele>1035.6</ele>
        <time>2021-07-22T16:06:58Z</time>
      </trkpt>
      <trkpt lat="44.81671" lon="4.316">
        <ele>1039.5</ele>
        <time>2021-07-22T16:07:10Z</time>
      </trkpt>
      <trkpt lat="44.81657" lon="4.31581">
        <ele>1049.4</ele>
        <time>2021-07-22T16:07:36Z</time>
      </trkpt>
      <trkpt lat="44.81659" lon="4.31571">
        <ele>1051.4</ele>
        <time>2021-07-22T16:07:45Z</time>
      </trkpt>
      <trkpt lat="44.81654" lon="4.31557">
        <ele>1055.6</ele>
        <time>2021-07-22T16:08:00Z</time>
      </trkpt>
      <trkpt lat="44.81639" lon="4.31555">
        <ele>1057</ele>
        <time>2021-07-22T16:08:20Z</time>
      </trkpt>
      <trkpt lat="44.8164" lon="4.31544">
        <ele>1057.6</ele>
        <time>2021-07-22T16:08:36Z</time>
      </trkpt>
      <trkpt lat="44.81632" lon="4.31542">
        <ele>1055.9</ele>
        <time>2021-07-22T16:08:47Z</time>
      </trkpt>
      <trkpt lat="44.81635" lon="4.31527">
        <ele>1056.7</ele>
        <time>2021-07-22T16:09:02Z</time>
      </trkpt>
      <trkpt lat="44.8163" lon="4.31476">
        <ele>1057.4</ele>
        <time>2021-07-22T16:09:51Z</time>
      </trkpt>
      <trkpt lat="44.81637" lon="4.31451">
        <ele>1061.1</ele>
        <time>2021-07-22T16:10:17Z</time>
      </trkpt>
      <trkpt lat="44.81636" lon="4.31419">
        <ele>1058.6</ele>
        <time>2021-07-22T16:10:47Z</time>
      </trkpt>
      <trkpt lat="44.81645" lon="4.31385">
        <ele>1060.9</ele>
        <time>2021-07-22T16:11:22Z</time>
      </trkpt>
      <trkpt lat="44.8165" lon="4.31343">
        <ele>1062.3</ele>
        <time>2021-07-22T16:12:03Z</time>
      </trkpt>
      <trkpt lat="44.81648" lon="4.31322">
        <ele>1060.7</ele>
        <time>2021-07-22T16:12:23Z</time>
      </trkpt>
      <trkpt lat="44.81651" lon="4.31291">
        <ele>1062.1</ele>
        <time>2021-07-22T16:12:53Z</time>
      </trkpt>
      <trkpt lat="44.81647" lon="4.31274">
        <ele>1060.9</ele>
        <time>2021-07-22T16:13:10Z</time>
      </trkpt>
      <trkpt lat="44.81638" lon="4.31262">
        <ele>1058.4</ele>
        <time>2021-07-22T16:13:26Z</time>
      </trkpt>
      <trkpt lat="44.81632" lon="4.3124">
        <ele>1058.1</ele>
        <time>2021-07-22T16:13:49Z</time>
      </trkpt>
      <trkpt lat="44.81614" lon="4.31218">
        <ele>1051.3</ele>
        <time>2021-07-22T16:14:20Z</time>
      </trkpt>
      <trkpt lat="44.81597" lon="4.31211">
        <ele>1046.9</ele>
        <time>2021-07-22T16:14:44Z</time>
      </trkpt>
      <trkpt lat="44.81591" lon="4.31197">
        <ele>1045.5</ele>
        <time>2021-07-22T16:15:00Z</time>
      </trkpt>
      <trkpt lat="44.81569" lon="4.31188">
        <ele>1042.3</ele>
        <time>2021-07-22T16:15:30Z</time>
      </trkpt>
      <trkpt lat="44.8156" lon="4.31193">
        <ele>1040.6</ele>
        <time>2021-07-22T16:15:43Z</time>
      </trkpt>
      <trkpt lat="44.81535" lon="4.31178">
        <ele>1041.9</ele>
        <time>2021-07-22T16:16:20Z</time>
      </trkpt>
      <trkpt lat="44.81525" lon="4.31177">
        <ele>1041.2</ele>
        <time>2021-07-22T16:16:34Z</time>
      </trkpt>
      <trkpt lat="44.81504" lon="4.31151">
        <ele>1043.5</ele>
        <time>2021-07-22T16:17:11Z</time>
      </trkpt>
      <trkpt lat="44.81502" lon="4.31131">
        <ele>1049.3</ele>
        <time>2021-07-22T16:17:30Z</time>
      </trkpt>
      <trkpt lat="44.81486" lon="4.31106">
        <ele>1049.2</ele>
        <time>2021-07-22T16:18:02Z</time>
      </trkpt>
      <trkpt lat="44.8149" lon="4.31041">
        <ele>1060.5</ele>
        <time>2021-07-22T16:19:04Z</time>
      </trkpt>
      <trkpt lat="44.81517" lon="4.31013">
        <ele>1068.1</ele>
        <time>2021-07-22T16:19:49Z</time>
      </trkpt>
      <trkpt lat="44.81564" lon="4.31026">
        <ele>1071.4</ele>
        <time>2021-07-22T16:20:53Z</time>
      </trkpt>
      <trkpt lat="44.81585" lon="4.31022">
        <ele>1074.9</ele>
        <time>2021-07-22T16:21:21Z</time>
      </trkpt>
      <trkpt lat="44.81598" lon="4.31041">
        <ele>1075.5</ele>
        <time>2021-07-22T16:21:46Z</time>
      </trkpt>
      <trkpt lat="44.81615" lon="4.31053">
        <ele>1078.2</ele>
        <time>2021-07-22T16:22:12Z</time>
      </trkpt>
      <trkpt lat="44.81626" lon="4.31056">
        <ele>1080.1</ele>
        <time>2021-07-22T16:22:27Z</time>
      </trkpt>
      <trkpt lat="44.81638" lon="4.31067">
        <ele>1080.7</ele>
        <time>2021-07-22T16:22:46Z</time>
      </trkpt>
      <trkpt lat="44.81653" lon="4.31067">
        <ele>1083.7</ele>
        <time>2021-07-22T16:23:06Z</time>
      </trkpt>
      <trkpt lat="44.81673" lon="4.31085">
        <ele>1084.9</ele>
        <time>2021-07-22T16:23:38Z</time>
      </trkpt>
      <trkpt lat="44.81685" lon="4.31085">
        <ele>1087.1</ele>
        <time>2021-07-22T16:23:54Z</time>
      </trkpt>
      <trkpt lat="44.81711" lon="4.31109">
        <ele>1087.7</ele>
        <time>2021-07-22T16:24:36Z</time>
      </trkpt>
      <trkpt lat="44.81729" lon="4.31107">
        <ele>1090</ele>
        <time>2021-07-22T16:25:01Z</time>
      </trkpt>
      <trkpt lat="44.81737" lon="4.31111">
        <ele>1090.1</ele>
        <time>2021-07-22T16:25:12Z</time>
      </trkpt>
      <trkpt lat="44.81761" lon="4.31112">
        <ele>1092.2</ele>
        <time>2021-07-22T16:25:45Z</time>
      </trkpt>
      <trkpt lat="44.81769" lon="4.31123">
        <ele>1093.2</ele>
        <time>2021-07-22T16:26:00Z</time>
      </trkpt>
      <trkpt lat="44.8177" lon="4.31152">
        <ele>1094.2</ele>
        <time>2021-07-22T16:26:28Z</time>
      </trkpt>
      <trkpt lat="44.81778" lon="4.3117">
        <ele>1095.5</ele>
        <time>2021-07-22T16:26:48Z</time>
      </trkpt>
      <trkpt lat="44.818" lon="4.31168">
        <ele>1096.6</ele>
        <time>2021-07-22T16:27:18Z</time>
      </trkpt>
      <trkpt lat="44.81826" lon="4.31156">
        <ele>1099</ele>
        <time>2021-07-22T16:27:54Z</time>
      </trkpt>
      <trkpt lat="44.81851" lon="4.31158">
        <ele>1102.6</ele>
        <time>2021-07-22T16:28:28Z</time>
      </trkpt>
      <trkpt lat="44.81866" lon="4.31165">
        <ele>1104.8</ele>
        <time>2021-07-22T16:28:49Z</time>
      </trkpt>
      <trkpt lat="44.8188" lon="4.31183">
        <ele>1106.2</ele>
        <time>2021-07-22T16:29:14Z</time>
      </trkpt>
      <trkpt lat="44.8189" lon="4.31189">
        <ele>1108.5</ele>
        <time>2021-07-22T16:29:29Z</time>
      </trkpt>
      <trkpt lat="44.81893" lon="4.31158">
        <ele>1115</ele>
        <time>2021-07-22T16:29:58Z</time>
      </trkpt>
      <trkpt lat="44.81889" lon="4.31127">
        <ele>1116.9</ele>
        <time>2021-07-22T16:30:28Z</time>
      </trkpt>
      <trkpt lat="44.81904" lon="4.31079">
        <ele>1124.6</ele>
        <time>2021-07-22T16:31:18Z</time>
      </trkpt>
      <trkpt lat="44.8191" lon="4.31064">
        <ele>1126.6</ele>
        <time>2021-07-22T16:31:36Z</time>
      </trkpt>
      <trkpt lat="44.81916" lon="4.31036">
        <ele>1129.3</ele>
        <time>2021-07-22T16:32:03Z</time>
      </trkpt>
      <trkpt lat="44.81912" lon="4.30995">
        <ele>1133</ele>
        <time>2021-07-22T16:32:43Z</time>
      </trkpt>
      <trkpt lat="44.81913" lon="4.30974">
        <ele>1135.7</ele>
        <time>2021-07-22T16:33:03Z</time>
      </trkpt>
      <trkpt lat="44.81882" lon="4.30932">
        <ele>1142.2</ele>
        <time>2021-07-22T16:34:00Z</time>
      </trkpt>
      <trkpt lat="44.81873" lon="4.30916">
        <ele>1145.7</ele>
        <time>2021-07-22T16:34:19Z</time>
      </trkpt>
      <trkpt lat="44.81857" lon="4.30909">
        <ele>1148.1</ele>
        <time>2021-07-22T16:34:42Z</time>
      </trkpt>
      <trkpt lat="44.81845" lon="4.30911">
        <ele>1147.8</ele>
        <time>2021-07-22T16:34:58Z</time>
      </trkpt>
      <trkpt lat="44.81827" lon="4.30884">
        <ele>1157.1</ele>
        <time>2021-07-22T16:35:33Z</time>
      </trkpt>
      <trkpt lat="44.8182" lon="4.30879">
        <ele>1158.4</ele>
        <time>2021-07-22T16:35:43Z</time>
      </trkpt>
      <trkpt lat="44.81798" lon="4.30872">
        <ele>1159.4</ele>
        <time>2021-07-22T16:36:13Z</time>
      </trkpt>
      <trkpt lat="44.81766" lon="4.30836">
        <ele>1166.6</ele>
        <time>2021-07-22T16:37:08Z</time>
      </trkpt>
      <trkpt lat="44.81761" lon="4.30826">
        <ele>1169.1</ele>
        <time>2021-07-22T16:37:20Z</time>
      </trkpt>
      <trkpt lat="44.8175" lon="4.30819">
        <ele>1168.7</ele>
        <time>2021-07-22T16:37:36Z</time>
      </trkpt>
      <trkpt lat="44.81734" lon="4.30791">
        <ele>1175.1</ele>
        <time>2021-07-22T16:38:10Z</time>
      </trkpt>
      <trkpt lat="44.81713" lon="4.30764">
        <ele>1175.8</ele>
        <time>2021-07-22T16:38:48Z</time>
      </trkpt>
      <trkpt lat="44.81709" lon="4.30745">
        <ele>1179.1</ele>
        <time>2021-07-22T16:39:06Z</time>
      </trkpt>
      <trkpt lat="44.81696" lon="4.30723">
        <ele>1179.4</ele>
        <time>2021-07-22T16:39:34Z</time>
      </trkpt>
      <trkpt lat="44.81666" lon="4.30707">
        <ele>1181.7</ele>
        <time>2021-07-22T16:40:16Z</time>
      </trkpt>
      <trkpt lat="44.81656" lon="4.30704">
        <ele>1184.2</ele>
        <time>2021-07-22T16:40:30Z</time>
      </trkpt>
      <trkpt lat="44.81659" lon="4.30693">
        <ele>1188.5</ele>
        <time>2021-07-22T16:40:41Z</time>
      </trkpt>
      <trkpt lat="44.81667" lon="4.30694">
        <ele>1187.2</ele>
        <time>2021-07-22T16:40:52Z</time>
      </trkpt>
      <trkpt lat="44.81678" lon="4.30687">
        <ele>1190.3</ele>
        <time>2021-07-22T16:41:08Z</time>
      </trkpt>
      <trkpt lat="44.81689" lon="4.30691">
        <ele>1188.4</ele>
        <time>2021-07-22T16:41:23Z</time>
      </trkpt>
      <trkpt lat="44.817" lon="4.30688">
        <ele>1191.1</ele>
        <time>2021-07-22T16:41:38Z</time>
      </trkpt>
      <trkpt lat="44.8173" lon="4.30701">
        <ele>1197.8</ele>
        <time>2021-07-22T16:42:25Z</time>
      </trkpt>
      <trkpt lat="44.81738" lon="4.30715">
        <ele>1198.6</ele>
        <time>2021-07-22T16:42:42Z</time>
      </trkpt>
      <trkpt lat="44.81743" lon="4.3073">
        <ele>1197.8</ele>
        <time>2021-07-22T16:42:58Z</time>
      </trkpt>
      <trkpt lat="44.81762" lon="4.30741">
        <ele>1198.4</ele>
        <time>2021-07-22T16:43:25Z</time>
      </trkpt>
      <trkpt lat="44.81754" lon="4.30719">
        <ele>1203</ele>
        <time>2021-07-22T16:43:49Z</time>
      </trkpt>
      <trkpt lat="44.81786" lon="4.30633">
        <ele>1209.5</ele>
        <time>2021-07-22T16:45:23Z</time>
      </trkpt>
      <trkpt lat="44.81785" lon="4.30608">
        <ele>1213.3</ele>
        <time>2021-07-22T16:45:46Z</time>
      </trkpt>
      <trkpt lat="44.81794" lon="4.30551">
        <ele>1217.3</ele>
        <time>2021-07-22T16:46:42Z</time>
      </trkpt>
      <trkpt lat="44.81802" lon="4.3053">
        <ele>1217.4</ele>
        <time>2021-07-22T16:47:05Z</time>
      </trkpt>
      <trkpt lat="44.81806" lon="4.30504">
        <ele>1219.5</ele>
        <time>2021-07-22T16:47:30Z</time>
      </trkpt>
      <trkpt lat="44.81821" lon="4.3047">
        <ele>1220.8</ele>
        <time>2021-07-22T16:48:08Z</time>
      </trkpt>
      <trkpt lat="44.81821" lon="4.30446">
        <ele>1222.6</ele>
        <time>2021-07-22T16:48:31Z</time>
      </trkpt>
      <trkpt lat="44.8183" lon="4.30434">
        <ele>1221.8</ele>
        <time>2021-07-22T16:48:48Z</time>
      </trkpt>
      <trkpt lat="44.8184" lon="4.30392">
        <ele>1225.5</ele>
        <time>2021-07-22T16:49:31Z</time>
      </trkpt>
      <trkpt lat="44.81848" lon="4.30379">
        <ele>1226.3</ele>
        <time>2021-07-22T16:49:47Z</time>
      </trkpt>
      <trkpt lat="44.81885" lon="4.30348">
        <ele>1229</ele>
        <time>2021-07-22T16:50:45Z</time>
      </trkpt>
      <trkpt lat="44.819" lon="4.30331">
        <ele>1228.9</ele>
        <time>2021-07-22T16:51:12Z</time>
      </trkpt>
      <trkpt lat="44.81906" lon="4.30284">
        <ele>1233.7</ele>
        <time>2021-07-22T16:51:57Z</time>
      </trkpt>
      <trkpt lat="44.81915" lon="4.30263">
        <ele>1235.3</ele>
        <time>2021-07-22T16:52:20Z</time>
      </trkpt>
      <trkpt lat="44.8192" lon="4.30238">
        <ele>1238.1</ele>
        <time>2021-07-22T16:52:45Z</time>
      </trkpt>
      <trkpt lat="44.81947" lon="4.30207">
        <ele>1240.2</ele>
        <time>2021-07-22T16:53:31Z</time>
      </trkpt>
      <trkpt lat="44.81946" lon="4.30182">
        <ele>1242.2</ele>
        <time>2021-07-22T16:53:55Z</time>
      </trkpt>
      <trkpt lat="44.81905" lon="4.30102">
        <ele>1245.8</ele>
        <time>2021-07-22T16:55:28Z</time>
      </trkpt>
      <trkpt lat="44.81864" lon="4.30067">
        <ele>1247.9</ele>
        <time>2021-07-22T16:56:32Z</time>
      </trkpt>
      <trkpt lat="44.81856" lon="4.30053">
        <ele>1248.8</ele>
        <time>2021-07-22T16:56:49Z</time>
      </trkpt>
      <trkpt lat="44.81857" lon="4.30028">
        <ele>1248.7</ele>
        <time>2021-07-22T16:57:13Z</time>
      </trkpt>
      <trkpt lat="44.8185" lon="4.30015">
        <ele>1250.3</ele>
        <time>2021-07-22T16:57:28Z</time>
      </trkpt>
      <trkpt lat="44.81839" lon="4.30007">
        <ele>1252.1</ele>
        <time>2021-07-22T16:57:45Z</time>
      </trkpt>
      <trkpt lat="44.81819" lon="4.30008">
        <ele>1253.8</ele>
        <time>2021-07-22T16:58:12Z</time>
      </trkpt>
      <trkpt lat="44.81808" lon="4.30014">
        <ele>1254.8</ele>
        <time>2021-07-22T16:58:27Z</time>
      </trkpt>
      <trkpt lat="44.81766" lon="4.30018">
        <ele>1256.8</ele>
        <time>2021-07-22T16:59:25Z</time>
      </trkpt>
      <trkpt lat="44.81752" lon="4.30011">
        <ele>1257</ele>
        <time>2021-07-22T16:59:45Z</time>
      </trkpt>
      <trkpt lat="44.81722" lon="4.30012">
        <ele>1258.3</ele>
        <time>2021-07-22T17:00:25Z</time>
      </trkpt>
      <trkpt lat="44.81711" lon="4.30007">
        <ele>1258.5</ele>
        <time>2021-07-22T17:00:40Z</time>
      </trkpt>
      <trkpt lat="44.81656" lon="4.30021">
        <ele>1261</ele>
        <time>2021-07-22T17:01:55Z</time>
      </trkpt>
      <trkpt lat="44.81604" lon="4.3002">
        <ele>1262.8</ele>
        <time>2021-07-22T17:03:04Z</time>
      </trkpt>
      <trkpt lat="44.81585" lon="4.30015">
        <ele>1264.7</ele>
        <time>2021-07-22T17:03:30Z</time>
      </trkpt>
      <trkpt lat="44.81554" lon="4.3002">
        <ele>1267.7</ele>
        <time>2021-07-22T17:04:12Z</time>
      </trkpt>
      <trkpt lat="44.81568" lon="4.29973">
        <ele>1271.6</ele>
        <time>2021-07-22T17:05:10Z</time>
      </trkpt>
      <trkpt lat="44.81572" lon="4.2994">
        <ele>1272.3</ele>
        <time>2021-07-22T17:05:42Z</time>
      </trkpt>
      <trkpt lat="44.8157" lon="4.29923">
        <ele>1272.1</ele>
        <time>2021-07-22T17:05:58Z</time>
      </trkpt>
      <trkpt lat="44.81564" lon="4.29916">
        <ele>1273.1</ele>
        <time>2021-07-22T17:06:08Z</time>
      </trkpt>
      <trkpt lat="44.81554" lon="4.29912">
        <ele>1275</ele>
        <time>2021-07-22T17:06:22Z</time>
      </trkpt>
      <trkpt lat="44.81519" lon="4.29876">
        <ele>1279.1</ele>
        <time>2021-07-22T17:07:20Z</time>
      </trkpt>
      <trkpt lat="44.81502" lon="4.29851">
        <ele>1281.3</ele>
        <time>2021-07-22T17:07:53Z</time>
      </trkpt>
      <trkpt lat="44.81495" lon="4.29845">
        <ele>1281.8</ele>
        <time>2021-07-22T17:08:04Z</time>
      </trkpt>
      <trkpt lat="44.81478" lon="4.29845">
        <ele>1283</ele>
        <time>2021-07-22T17:08:27Z</time>
      </trkpt>
      <trkpt lat="44.8146" lon="4.29851">
        <ele>1283.9</ele>
        <time>2021-07-22T17:08:51Z</time>
      </trkpt>
      <trkpt lat="44.81418" lon="4.29843">
        <ele>1284.6</ele>
        <time>2021-07-22T17:09:48Z</time>
      </trkpt>
      <trkpt lat="44.81383" lon="4.29842">
        <ele>1286.2</ele>
        <time>2021-07-22T17:10:35Z</time>
      </trkpt>
      <trkpt lat="44.81307" lon="4.29815">
        <ele>1289.2</ele>
        <time>2021-07-22T17:12:21Z</time>
      </trkpt>
      <trkpt lat="44.81283" lon="4.29809">
        <ele>1289.8</ele>
        <time>2021-07-22T17:12:54Z</time>
      </trkpt>
      <trkpt lat="44.81251" lon="4.29783">
        <ele>1291.7</ele>
        <time>2021-07-22T17:13:43Z</time>
      </trkpt>
      <trkpt lat="44.81239" lon="4.29785">
        <ele>1292.4</ele>
        <time>2021-07-22T17:13:59Z</time>
      </trkpt>
      <trkpt lat="44.81222" lon="4.29776">
        <ele>1294.1</ele>
        <time>2021-07-22T17:14:24Z</time>
      </trkpt>
      <trkpt lat="44.81214" lon="4.29765">
        <ele>1294.3</ele>
        <time>2021-07-22T17:14:39Z</time>
      </trkpt>
      <trkpt lat="44.81204" lon="4.29741">
        <ele>1295.2</ele>
        <time>2021-07-22T17:15:05Z</time>
      </trkpt>
      <trkpt lat="44.81198" lon="4.29716">
        <ele>1296.1</ele>
        <time>2021-07-22T17:15:30Z</time>
      </trkpt>
      <trkpt lat="44.81174" lon="4.29663">
        <ele>1298.9</ele>
        <time>2021-07-22T17:16:30Z</time>
      </trkpt>
      <trkpt lat="44.81174" lon="4.2965">
        <ele>1299.5</ele>
        <time>2021-07-22T17:16:43Z</time>
      </trkpt>
      <trkpt lat="44.81166" lon="4.29626">
        <ele>1300.5</ele>
        <time>2021-07-22T17:17:08Z</time>
      </trkpt>
      <trkpt lat="44.81151" lon="4.29608">
        <ele>1301.1</ele>
        <time>2021-07-22T17:17:34Z</time>
      </trkpt>
      <trkpt lat="44.81137" lon="4.29565">
        <ele>1302.5</ele>
        <time>2021-07-22T17:18:19Z</time>
      </trkpt>
      <trkpt lat="44.8113" lon="4.29524">
        <ele>1302.8</ele>
        <time>2021-07-22T17:18:59Z</time>
      </trkpt>
      <trkpt lat="44.81118" lon="4.29495">
        <ele>1303.4</ele>
        <time>2021-07-22T17:19:30Z</time>
      </trkpt>
      <trkpt lat="44.81108" lon="4.2946">
        <ele>1303.9</ele>
        <time>2021-07-22T17:20:06Z</time>
      </trkpt>
      <trkpt lat="44.81096" lon="4.29399">
        <ele>1305.2</ele>
        <time>2021-07-22T17:21:08Z</time>
      </trkpt>
      <trkpt lat="44.81089" lon="4.2938">
        <ele>1305.8</ele>
        <time>2021-07-22T17:21:28Z</time>
      </trkpt>
      <trkpt lat="44.81089" lon="4.2929">
        <ele>1309.8</ele>
        <time>2021-07-22T17:22:53Z</time>
      </trkpt>
      <trkpt lat="44.81084" lon="4.29273">
        <ele>1311.1</ele>
        <time>2021-07-22T17:23:10Z</time>
      </trkpt>
      <trkpt lat="44.81083" lon="4.29247">
        <ele>1312.2</ele>
        <time>2021-07-22T17:23:35Z</time>
      </trkpt>
      <trkpt lat="44.8106" lon="4.29191">
        <ele>1316</ele>
        <time>2021-07-22T17:24:38Z</time>
      </trkpt>
      <trkpt lat="44.81045" lon="4.29179">
        <ele>1318.4</ele>
        <time>2021-07-22T17:25:01Z</time>
      </trkpt>
      <trkpt lat="44.81029" lon="4.29152">
        <ele>1321</ele>
        <time>2021-07-22T17:25:36Z</time>
      </trkpt>
      <trkpt lat="44.8102" lon="4.29084">
        <ele>1325.7</ele>
        <time>2021-07-22T17:26:42Z</time>
      </trkpt>
      <trkpt lat="44.81011" lon="4.29068">
        <ele>1325.6</ele>
        <time>2021-07-22T17:27:02Z</time>
      </trkpt>
      <trkpt lat="44.80999" lon="4.29061">
        <ele>1325</ele>
        <time>2021-07-22T17:27:19Z</time>
      </trkpt>
      <trkpt lat="44.80978" lon="4.29073">
        <ele>1324</ele>
        <time>2021-07-22T17:27:51Z</time>
      </trkpt>
      <trkpt lat="44.80966" lon="4.29061">
        <ele>1324.4</ele>
        <time>2021-07-22T17:28:11Z</time>
      </trkpt>
      <trkpt lat="44.8097" lon="4.29074">
        <ele>1323.6</ele>
        <time>2021-07-22T17:28:25Z</time>
      </trkpt>
      <trkpt lat="44.80966" lon="4.29102">
        <ele>1322</ele>
        <time>2021-07-22T17:28:52Z</time>
      </trkpt>
      <trkpt lat="44.8096" lon="4.29117">
        <ele>1321.1</ele>
        <time>2021-07-22T17:29:08Z</time>
      </trkpt>
      <trkpt lat="44.8093" lon="4.29165">
        <ele>1317.6</ele>
        <time>2021-07-22T17:30:09Z</time>
      </trkpt>
      <trkpt lat="44.80899" lon="4.29228">
        <ele>1315.6</ele>
        <time>2021-07-22T17:31:22Z</time>
      </trkpt>
      <trkpt lat="44.80871" lon="4.29279">
        <ele>1315</ele>
        <time>2021-07-22T17:32:23Z</time>
      </trkpt>
      <trkpt lat="44.80864" lon="4.29287">
        <ele>1315.3</ele>
        <time>2021-07-22T17:32:35Z</time>
      </trkpt>
      <trkpt lat="44.80858" lon="4.29305">
        <ele>1315.9</ele>
        <time>2021-07-22T17:32:53Z</time>
      </trkpt>
      <trkpt lat="44.80832" lon="4.29351">
        <ele>1315.9</ele>
        <time>2021-07-22T17:33:49Z</time>
      </trkpt>
      <trkpt lat="44.80806" lon="4.29409">
        <ele>1316.7</ele>
        <time>2021-07-22T17:34:54Z</time>
      </trkpt>
      <trkpt lat="44.80787" lon="4.2947">
        <ele>1318.3</ele>
        <time>2021-07-22T17:35:57Z</time>
      </trkpt>
      <trkpt lat="44.80759" lon="4.29532">
        <ele>1321.3</ele>
        <time>2021-07-22T17:37:07Z</time>
      </trkpt>
      <trkpt lat="44.8071" lon="4.29585">
        <ele>1327</ele>
        <time>2021-07-22T17:38:29Z</time>
      </trkpt>
      <trkpt lat="44.8067" lon="4.29609">
        <ele>1329.9</ele>
        <time>2021-07-22T17:39:27Z</time>
      </trkpt>
      <trkpt lat="44.80608" lon="4.29683">
        <ele>1337.7</ele>
        <time>2021-07-22T17:41:16Z</time>
      </trkpt>
      <trkpt lat="44.80597" lon="4.29701">
        <ele>1338.6</ele>
        <time>2021-07-22T17:41:38Z</time>
      </trkpt>
      <trkpt lat="44.80548" lon="4.29737">
        <ele>1341.8</ele>
        <time>2021-07-22T17:42:52Z</time>
      </trkpt>
      <trkpt lat="44.80518" lon="4.29751">
        <ele>1343.4</ele>
        <time>2021-07-22T17:43:34Z</time>
      </trkpt>
      <trkpt lat="44.80465" lon="4.29794">
        <ele>1347.2</ele>
        <time>2021-07-22T17:44:56Z</time>
      </trkpt>
      <trkpt lat="44.8045" lon="4.29795">
        <ele>1347.2</ele>
        <time>2021-07-22T17:45:16Z</time>
      </trkpt>
      <trkpt lat="44.80415" lon="4.29814">
        <ele>1350.5</ele>
        <time>2021-07-22T17:46:06Z</time>
      </trkpt>
      <trkpt lat="44.80372" lon="4.29854">
        <ele>1352.3</ele>
        <time>2021-07-22T17:47:15Z</time>
      </trkpt>
      <trkpt lat="44.8031" lon="4.29913">
        <ele>1355.6</ele>
        <time>2021-07-22T17:49:01Z</time>
      </trkpt>
      <trkpt lat="44.80289" lon="4.29932">
        <ele>1355.9</ele>
        <time>2021-07-22T17:49:35Z</time>
      </trkpt>
      <trkpt lat="44.80265" lon="4.29971">
        <ele>1356.5</ele>
        <time>2021-07-22T17:50:24Z</time>
      </trkpt>
      <trkpt lat="44.80249" lon="4.30018">
        <ele>1354.9</ele>
        <time>2021-07-22T17:51:13Z</time>
      </trkpt>
      <trkpt lat="44.80233" lon="4.3005">
        <ele>1354</ele>
        <time>2021-07-22T17:51:50Z</time>
      </trkpt>
      <trkpt lat="44.80223" lon="4.30061">
        <ele>1353.1</ele>
        <time>2021-07-22T17:52:07Z</time>
      </trkpt>
      <trkpt lat="44.80209" lon="4.30093">
        <ele>1351.5</ele>
        <time>2021-07-22T17:52:43Z</time>
      </trkpt>
      <trkpt lat="44.802" lon="4.30139">
        <ele>1351.2</ele>
        <time>2021-07-22T17:53:28Z</time>
      </trkpt>
      <trkpt lat="44.80179" lon="4.30217">
        <ele>1349.1</ele>
        <time>2021-07-22T17:54:47Z</time>
      </trkpt>
      <trkpt lat="44.80166" lon="4.30296">
        <ele>1346.9</ele>
        <time>2021-07-22T17:56:05Z</time>
      </trkpt>
      <trkpt lat="44.80163" lon="4.30363">
        <ele>1346.1</ele>
        <time>2021-07-22T17:57:08Z</time>
      </trkpt>
      <trkpt lat="44.80166" lon="4.30378">
        <ele>1346.8</ele>
        <time>2021-07-22T17:57:23Z</time>
      </trkpt>
      <trkpt lat="44.80164" lon="4.30421">
        <ele>1345.5</ele>
        <time>2021-07-22T17:58:04Z</time>
      </trkpt>
      <trkpt lat="44.80167" lon="4.30446">
        <ele>1346.1</ele>
        <time>2021-07-22T17:58:28Z</time>
      </trkpt>
      <trkpt lat="44.80161" lon="4.305">
        <ele>1345.2</ele>
        <time>2021-07-22T17:59:20Z</time>
      </trkpt>
      <trkpt lat="44.80116" lon="4.30579">
        <ele>1349.4</ele>
        <time>2021-07-22T18:00:56Z</time>
      </trkpt>
      <trkpt lat="44.80115" lon="4.3059">
        <ele>1350</ele>
        <time>2021-07-22T18:01:06Z</time>
      </trkpt>
      <trkpt lat="44.80108" lon="4.30613">
        <ele>1349.7</ele>
        <time>2021-07-22T18:01:30Z</time>
      </trkpt>
      <trkpt lat="44.80107" lon="4.30627">
        <ele>1349.6</ele>
        <time>2021-07-22T18:01:43Z</time>
      </trkpt>
      <trkpt lat="44.80099" lon="4.30672">
        <ele>1347.7</ele>
        <time>2021-07-22T18:02:29Z</time>
      </trkpt>
      <trkpt lat="44.80105" lon="4.30708">
        <ele>1348</ele>
        <time>2021-07-22T18:03:04Z</time>
      </trkpt>
      <trkpt lat="44.80103" lon="4.30742">
        <ele>1347.5</ele>
        <time>2021-07-22T18:03:36Z</time>
      </trkpt>
      <trkpt lat="44.80114" lon="4.30783">
        <ele>1348.3</ele>
        <time>2021-07-22T18:04:17Z</time>
      </trkpt>
      <trkpt lat="44.80103" lon="4.30832">
        <ele>1347.1</ele>
        <time>2021-07-22T18:05:06Z</time>
      </trkpt>
      <trkpt lat="44.80112" lon="4.30834">
        <ele>1348</ele>
        <time>2021-07-22T18:05:18Z</time>
      </trkpt>
      <trkpt lat="44.80129" lon="4.30832">
        <ele>1348</ele>
        <time>2021-07-22T18:05:41Z</time>
      </trkpt>
      <trkpt lat="44.80137" lon="4.30837">
        <ele>1347.8</ele>
        <time>2021-07-22T18:05:53Z</time>
      </trkpt>
      <trkpt lat="44.80144" lon="4.30868">
        <ele>1344.4</ele>
        <time>2021-07-22T18:06:24Z</time>
      </trkpt>
      <trkpt lat="44.8014" lon="4.30886">
        <ele>1343</ele>
        <time>2021-07-22T18:06:41Z</time>
      </trkpt>
      <trkpt lat="44.80145" lon="4.3092">
        <ele>1340.5</ele>
        <time>2021-07-22T18:07:14Z</time>
      </trkpt>
      <trkpt lat="44.80139" lon="4.30962">
        <ele>1339.3</ele>
        <time>2021-07-22T18:07:55Z</time>
      </trkpt>
      <trkpt lat="44.80144" lon="4.30971">
        <ele>1337.6</ele>
        <time>2021-07-22T18:08:06Z</time>
      </trkpt>
      <trkpt lat="44.80138" lon="4.30989">
        <ele>1337.5</ele>
        <time>2021-07-22T18:08:26Z</time>
      </trkpt>
      <trkpt lat="44.80136" lon="4.31014">
        <ele>1334.4</ele>
        <time>2021-07-22T18:08:50Z</time>
      </trkpt>
      <trkpt lat="44.8013" lon="4.31039">
        <ele>1329.5</ele>
        <time>2021-07-22T18:09:15Z</time>
      </trkpt>
      <trkpt lat="44.80125" lon="4.31047">
        <ele>1328.3</ele>
        <time>2021-07-22T18:09:25Z</time>
      </trkpt>
      <trkpt lat="44.80122" lon="4.3106">
        <ele>1325.3</ele>
        <time>2021-07-22T18:09:38Z</time>
      </trkpt>
      <trkpt lat="44.8011" lon="4.31074">
        <ele>1325.7</ele>
        <time>2021-07-22T18:09:59Z</time>
      </trkpt>
      <trkpt lat="44.801" lon="4.31097">
        <ele>1323</ele>
        <time>2021-07-22T18:10:25Z</time>
      </trkpt>
      <trkpt lat="44.8009" lon="4.31107">
        <ele>1323.2</ele>
        <time>2021-07-22T18:10:41Z</time>
      </trkpt>
      <trkpt lat="44.80079" lon="4.31113">
        <ele>1324</ele>
        <time>2021-07-22T18:10:57Z</time>
      </trkpt>
      <trkpt lat="44.80055" lon="4.3115">
        <ele>1317.1</ele>
        <time>2021-07-22T18:11:44Z</time>
      </trkpt>
      <trkpt lat="44.80031" lon="4.31173">
        <ele>1315.1</ele>
        <time>2021-07-22T18:12:23Z</time>
      </trkpt>
      <trkpt lat="44.80023" lon="4.31186">
        <ele>1314.5</ele>
        <time>2021-07-22T18:12:39Z</time>
      </trkpt>
      <trkpt lat="44.80013" lon="4.31195">
        <ele>1313.5</ele>
        <time>2021-07-22T18:12:55Z</time>
      </trkpt>
      <trkpt lat="44.80006" lon="4.31214">
        <ele>1311.7</ele>
        <time>2021-07-22T18:13:15Z</time>
      </trkpt>
      <trkpt lat="44.80011" lon="4.31237">
        <ele>1310.1</ele>
        <time>2021-07-22T18:13:38Z</time>
      </trkpt>
      <trkpt lat="44.80012" lon="4.31264">
        <ele>1308.3</ele>
        <time>2021-07-22T18:14:04Z</time>
      </trkpt>
      <trkpt lat="44.80047" lon="4.31344">
        <ele>1304.1</ele>
        <time>2021-07-22T18:15:33Z</time>
      </trkpt>
      <trkpt lat="44.80105" lon="4.31404">
        <ele>1301.2</ele>
        <time>2021-07-22T18:17:09Z</time>
      </trkpt>
      <trkpt lat="44.80117" lon="4.31409">
        <ele>1298.7</ele>
        <time>2021-07-22T18:17:26Z</time>
      </trkpt>
      <trkpt lat="44.8015" lon="4.31403">
        <ele>1292.5</ele>
        <time>2021-07-22T18:18:10Z</time>
      </trkpt>
      <trkpt lat="44.80169" lon="4.31425">
        <ele>1288.2</ele>
        <time>2021-07-22T18:18:44Z</time>
      </trkpt>
      <trkpt lat="44.80174" lon="4.31464">
        <ele>1284.7</ele>
        <time>2021-07-22T18:19:21Z</time>
      </trkpt>
      <trkpt lat="44.80173" lon="4.31483">
        <ele>1283.2</ele>
        <time>2021-07-22T18:19:39Z</time>
      </trkpt>
      <trkpt lat="44.80167" lon="4.31505">
        <ele>1281.8</ele>
        <time>2021-07-22T18:20:02Z</time>
      </trkpt>
      <trkpt lat="44.8017" lon="4.31553">
        <ele>1279.1</ele>
        <time>2021-07-22T18:20:47Z</time>
      </trkpt>
      <trkpt lat="44.80178" lon="4.31565">
        <ele>1278.3</ele>
        <time>2021-07-22T18:21:03Z</time>
      </trkpt>
      <trkpt lat="44.80207" lon="4.31645">
        <ele>1272</ele>
        <time>2021-07-22T18:22:29Z</time>
      </trkpt>
      <trkpt lat="44.80226" lon="4.31688">
        <ele>1267.4</ele>
        <time>2021-07-22T18:23:19Z</time>
      </trkpt>
      <trkpt lat="44.80231" lon="4.31704">
        <ele>1266</ele>
        <time>2021-07-22T18:23:35Z</time>
      </trkpt>
      <trkpt lat="44.80252" lon="4.3173">
        <ele>1263.3</ele>
        <time>2021-07-22T18:24:12Z</time>
      </trkpt>
      <trkpt lat="44.80262" lon="4.3175">
        <ele>1261.1</ele>
        <time>2021-07-22T18:24:36Z</time>
      </trkpt>
      <trkpt lat="44.80279" lon="4.31769">
        <ele>1259.3</ele>
        <time>2021-07-22T18:25:07Z</time>
      </trkpt>
      <trkpt lat="44.80286" lon="4.31795">
        <ele>1257.5</ele>
        <time>2021-07-22T18:25:33Z</time>
      </trkpt>
      <trkpt lat="44.803" lon="4.31824">
        <ele>1255.4</ele>
        <time>2021-07-22T18:26:06Z</time>
      </trkpt>
      <trkpt lat="44.803" lon="4.31835">
        <ele>1254.9</ele>
        <time>2021-07-22T18:26:17Z</time>
      </trkpt>
      <trkpt lat="44.80283" lon="4.31882">
        <ele>1251.6</ele>
        <time>2021-07-22T18:27:07Z</time>
      </trkpt>
      <trkpt lat="44.80274" lon="4.31922">
        <ele>1249.8</ele>
        <time>2021-07-22T18:27:48Z</time>
      </trkpt>
      <trkpt lat="44.80268" lon="4.31991">
        <ele>1247</ele>
        <time>2021-07-22T18:28:54Z</time>
      </trkpt>
      <trkpt lat="44.80259" lon="4.3203">
        <ele>1246</ele>
        <time>2021-07-22T18:29:32Z</time>
      </trkpt>
      <trkpt lat="44.80253" lon="4.32095">
        <ele>1244.8</ele>
        <time>2021-07-22T18:30:34Z</time>
      </trkpt>
      <trkpt lat="44.80245" lon="4.32134">
        <ele>1244.8</ele>
        <time>2021-07-22T18:31:13Z</time>
      </trkpt>
      <trkpt lat="44.80244" lon="4.32159">
        <ele>1244.4</ele>
        <time>2021-07-22T18:31:37Z</time>
      </trkpt>
      <trkpt lat="44.80239" lon="4.32175">
        <ele>1244.6</ele>
        <time>2021-07-22T18:31:53Z</time>
      </trkpt>
      <trkpt lat="44.80234" lon="4.32238">
        <ele>1244</ele>
        <time>2021-07-22T18:32:53Z</time>
      </trkpt>
      <trkpt lat="44.80227" lon="4.3226">
        <ele>1243</ele>
        <time>2021-07-22T18:33:16Z</time>
      </trkpt>
      <trkpt lat="44.80214" lon="4.32289">
        <ele>1241.5</ele>
        <time>2021-07-22T18:33:49Z</time>
      </trkpt>
      <trkpt lat="44.80203" lon="4.32335">
        <ele>1238.5</ele>
        <time>2021-07-22T18:34:35Z</time>
      </trkpt>
      <trkpt lat="44.80192" lon="4.32406">
        <ele>1233</ele>
        <time>2021-07-22T18:35:45Z</time>
      </trkpt>
      <trkpt lat="44.80192" lon="4.32422">
        <ele>1233</ele>
        <time>2021-07-22T18:36:00Z</time>
      </trkpt>
      <trkpt lat="44.80177" lon="4.32472">
        <ele>1232.5</ele>
        <time>2021-07-22T18:36:51Z</time>
      </trkpt>
      <trkpt lat="44.80173" lon="4.32508">
        <ele>1233.5</ele>
        <time>2021-07-22T18:37:26Z</time>
      </trkpt>
      <trkpt lat="44.80167" lon="4.3253">
        <ele>1231.2</ele>
        <time>2021-07-22T18:37:48Z</time>
      </trkpt>
      <trkpt lat="44.80166" lon="4.32591">
        <ele>1232.8</ele>
        <time>2021-07-22T18:38:46Z</time>
      </trkpt>
      <trkpt lat="44.80164" lon="4.32602">
        <ele>1232</ele>
        <time>2021-07-22T18:38:57Z</time>
      </trkpt>
      <trkpt lat="44.80168" lon="4.32621">
        <ele>1234.3</ele>
        <time>2021-07-22T18:39:16Z</time>
      </trkpt>
      <trkpt lat="44.80166" lon="4.32646">
        <ele>1233.4</ele>
        <time>2021-07-22T18:39:39Z</time>
      </trkpt>
      <trkpt lat="44.80177" lon="4.32697">
        <ele>1235.1</ele>
        <time>2021-07-22T18:40:30Z</time>
      </trkpt>
      <trkpt lat="44.80183" lon="4.3271">
        <ele>1237.9</ele>
        <time>2021-07-22T18:40:44Z</time>
      </trkpt>
      <trkpt lat="44.80184" lon="4.32752">
        <ele>1238.2</ele>
        <time>2021-07-22T18:41:24Z</time>
      </trkpt>
      <trkpt lat="44.80178" lon="4.32773">
        <ele>1236.5</ele>
        <time>2021-07-22T18:41:46Z</time>
      </trkpt>
      <trkpt lat="44.80175" lon="4.32821">
        <ele>1237.4</ele>
        <time>2021-07-22T18:42:31Z</time>
      </trkpt>
      <trkpt lat="44.80181" lon="4.32856">
        <ele>1237.6</ele>
        <time>2021-07-22T18:43:05Z</time>
      </trkpt>
      <trkpt lat="44.80184" lon="4.32885">
        <ele>1237.3</ele>
        <time>2021-07-22T18:43:35Z</time>
      </trkpt>
      <trkpt lat="44.80182" lon="4.32897">
        <ele>1236.9</ele>
        <time>2021-07-22T18:43:46Z</time>
      </trkpt>
      <trkpt lat="44.80183" lon="4.32916">
        <ele>1236.6</ele>
        <time>2021-07-22T18:44:04Z</time>
      </trkpt>
      <trkpt lat="44.80193" lon="4.32965">
        <ele>1235.9</ele>
        <time>2021-07-22T18:44:53Z</time>
      </trkpt>
      <trkpt lat="44.80197" lon="4.33011">
        <ele>1234.7</ele>
        <time>2021-07-22T18:45:36Z</time>
      </trkpt>
      <trkpt lat="44.80216" lon="4.3312">
        <ele>1230.8</ele>
        <time>2021-07-22T18:47:23Z</time>
      </trkpt>
      <trkpt lat="44.80233" lon="4.33159">
        <ele>1226.9</ele>
        <time>2021-07-22T18:48:06Z</time>
      </trkpt>
      <trkpt lat="44.80245" lon="4.33157">
        <ele>1227.1</ele>
        <time>2021-07-22T18:48:22Z</time>
      </trkpt>
      <trkpt lat="44.8027" lon="4.33187">
        <ele>1221.3</ele>
        <time>2021-07-22T18:49:07Z</time>
      </trkpt>
      <trkpt lat="44.80296" lon="4.332">
        <ele>1220</ele>
        <time>2021-07-22T18:49:44Z</time>
      </trkpt>
      <trkpt lat="44.80328" lon="4.33229">
        <ele>1216.3</ele>
        <time>2021-07-22T18:50:35Z</time>
      </trkpt>
      <trkpt lat="44.80345" lon="4.33265">
        <ele>1214.7</ele>
        <time>2021-07-22T18:51:16Z</time>
      </trkpt>
      <trkpt lat="44.80347" lon="4.33276">
        <ele>1214.1</ele>
        <time>2021-07-22T18:51:26Z</time>
      </trkpt>
      <trkpt lat="44.80361" lon="4.33294">
        <ele>1213.4</ele>
        <time>2021-07-22T18:51:52Z</time>
      </trkpt>
      <trkpt lat="44.80372" lon="4.3332">
        <ele>1212.9</ele>
        <time>2021-07-22T18:52:22Z</time>
      </trkpt>
      <trkpt lat="44.80378" lon="4.33329">
        <ele>1212.8</ele>
        <time>2021-07-22T18:52:33Z</time>
      </trkpt>
      <trkpt lat="44.8038" lon="4.3334">
        <ele>1212.4</ele>
        <time>2021-07-22T18:52:44Z</time>
      </trkpt>
      <trkpt lat="44.80387" lon="4.33355">
        <ele>1212.2</ele>
        <time>2021-07-22T18:53:01Z</time>
      </trkpt>
      <trkpt lat="44.80397" lon="4.33369">
        <ele>1211.8</ele>
        <time>2021-07-22T18:53:20Z</time>
      </trkpt>
      <trkpt lat="44.80403" lon="4.3339">
        <ele>1212</ele>
        <time>2021-07-22T18:53:42Z</time>
      </trkpt>
      <trkpt lat="44.80417" lon="4.3341">
        <ele>1210.5</ele>
        <time>2021-07-22T18:54:08Z</time>
      </trkpt>
      <trkpt lat="44.80424" lon="4.33432">
        <ele>1209.9</ele>
        <time>2021-07-22T18:54:31Z</time>
      </trkpt>
      <trkpt lat="44.8045" lon="4.33474">
        <ele>1207.8</ele>
        <time>2021-07-22T18:55:25Z</time>
      </trkpt>
      <trkpt lat="44.80473" lon="4.33508">
        <ele>1203.4</ele>
        <time>2021-07-22T18:56:10Z</time>
      </trkpt>
      <trkpt lat="44.8048" lon="4.33526">
        <ele>1202.1</ele>
        <time>2021-07-22T18:56:29Z</time>
      </trkpt>
      <trkpt lat="44.80503" lon="4.33564">
        <ele>1198.7</ele>
        <time>2021-07-22T18:57:16Z</time>
      </trkpt>
      <trkpt lat="44.80511" lon="4.33593">
        <ele>1196.7</ele>
        <time>2021-07-22T18:57:46Z</time>
      </trkpt>
      <trkpt lat="44.80517" lon="4.33604">
        <ele>1196.2</ele>
        <time>2021-07-22T18:57:59Z</time>
      </trkpt>
      <trkpt lat="44.80516" lon="4.33615">
        <ele>1194.9</ele>
        <time>2021-07-22T18:58:09Z</time>
      </trkpt>
      <trkpt lat="44.80541" lon="4.33683">
        <ele>1188.6</ele>
        <time>2021-07-22T18:59:22Z</time>
      </trkpt>
      <trkpt lat="44.80559" lon="4.33708">
        <ele>1186.7</ele>
        <time>2021-07-22T18:59:56Z</time>
      </trkpt>
      <trkpt lat="44.80569" lon="4.33737">
        <ele>1183.9</ele>
        <time>2021-07-22T19:00:26Z</time>
      </trkpt>
      <trkpt lat="44.80578" lon="4.33776">
        <ele>1180.6</ele>
        <time>2021-07-22T19:01:05Z</time>
      </trkpt>
      <trkpt lat="44.80578" lon="4.33789">
        <ele>1179.2</ele>
        <time>2021-07-22T19:01:17Z</time>
      </trkpt>
      <trkpt lat="44.80586" lon="4.33838">
        <ele>1176</ele>
        <time>2021-07-22T19:02:06Z</time>
      </trkpt>
      <trkpt lat="44.80593" lon="4.33873">
        <ele>1173.7</ele>
        <time>2021-07-22T19:02:40Z</time>
      </trkpt>
      <trkpt lat="44.8061" lon="4.33906">
        <ele>1169.5</ele>
        <time>2021-07-22T19:03:19Z</time>
      </trkpt>
      <trkpt lat="44.80605" lon="4.33924">
        <ele>1167.3</ele>
        <time>2021-07-22T19:03:37Z</time>
      </trkpt>
      <trkpt lat="44.80603" lon="4.33967">
        <ele>1163</ele>
        <time>2021-07-22T19:04:18Z</time>
      </trkpt>
      <trkpt lat="44.80607" lon="4.34016">
        <ele>1158.3</ele>
        <time>2021-07-22T19:05:04Z</time>
      </trkpt>
      <trkpt lat="44.80611" lon="4.34085">
        <ele>1151.9</ele>
        <time>2021-07-22T19:06:12Z</time>
      </trkpt>
      <trkpt lat="44.80622" lon="4.34129">
        <ele>1147.5</ele>
        <time>2021-07-22T19:06:56Z</time>
      </trkpt>
      <trkpt lat="44.80611" lon="4.34145">
        <ele>1146.6</ele>
        <time>2021-07-22T19:07:18Z</time>
      </trkpt>
      <trkpt lat="44.80607" lon="4.34161">
        <ele>1145.6</ele>
        <time>2021-07-22T19:07:34Z</time>
      </trkpt>
      <trkpt lat="44.80608" lon="4.3418">
        <ele>1143.6</ele>
        <time>2021-07-22T19:07:52Z</time>
      </trkpt>
      <trkpt lat="44.80606" lon="4.34198">
        <ele>1141.7</ele>
        <time>2021-07-22T19:08:09Z</time>
      </trkpt>
      <trkpt lat="44.80597" lon="4.34217">
        <ele>1139.1</ele>
        <time>2021-07-22T19:08:31Z</time>
      </trkpt>
      <trkpt lat="44.80597" lon="4.34234">
        <ele>1137</ele>
        <time>2021-07-22T19:08:47Z</time>
      </trkpt>
      <trkpt lat="44.80612" lon="4.34263">
        <ele>1137.1</ele>
        <time>2021-07-22T19:09:21Z</time>
      </trkpt>
      <trkpt lat="44.8062" lon="4.34273">
        <ele>1136.9</ele>
        <time>2021-07-22T19:09:35Z</time>
      </trkpt>
      <trkpt lat="44.80638" lon="4.34318">
        <ele>1134.4</ele>
        <time>2021-07-22T19:10:24Z</time>
      </trkpt>
      <trkpt lat="44.80662" lon="4.34352">
        <ele>1137.1</ele>
        <time>2021-07-22T19:11:10Z</time>
      </trkpt>
      <trkpt lat="44.80681" lon="4.34408">
        <ele>1132.5</ele>
        <time>2021-07-22T19:12:09Z</time>
      </trkpt>
      <trkpt lat="44.80699" lon="4.34447">
        <ele>1128.3</ele>
        <time>2021-07-22T19:12:53Z</time>
      </trkpt>
      <trkpt lat="44.80719" lon="4.3447">
        <ele>1126.4</ele>
        <time>2021-07-22T19:13:27Z</time>
      </trkpt>
      <trkpt lat="44.80769" lon="4.34558">
        <ele>1119.9</ele>
        <time>2021-07-22T19:15:14Z</time>
      </trkpt>
      <trkpt lat="44.80779" lon="4.3458">
        <ele>1119.1</ele>
        <time>2021-07-22T19:15:39Z</time>
      </trkpt>
      <trkpt lat="44.80798" lon="4.34605">
        <ele>1118.8</ele>
        <time>2021-07-22T19:16:14Z</time>
      </trkpt>
      <trkpt lat="44.80806" lon="4.3462">
        <ele>1119</ele>
        <time>2021-07-22T19:16:33Z</time>
      </trkpt>
      <trkpt lat="44.80782" lon="4.34687">
        <ele>1120</ele>
        <time>2021-07-22T19:17:44Z</time>
      </trkpt>
      <trkpt lat="44.80779" lon="4.34699">
        <ele>1120.2</ele>
        <time>2021-07-22T19:17:56Z</time>
      </trkpt>
      <trkpt lat="44.80779" lon="4.34723">
        <ele>1121</ele>
        <time>2021-07-22T19:18:18Z</time>
      </trkpt>
      <trkpt lat="44.80784" lon="4.3475">
        <ele>1121.2</ele>
        <time>2021-07-22T19:18:45Z</time>
      </trkpt>
      <trkpt lat="44.80789" lon="4.34758">
        <ele>1121.3</ele>
        <time>2021-07-22T19:18:55Z</time>
      </trkpt>
      <trkpt lat="44.808" lon="4.34809">
        <ele>1123.8</ele>
        <time>2021-07-22T19:19:46Z</time>
      </trkpt>
      <trkpt lat="44.80808" lon="4.34863">
        <ele>1125.8</ele>
        <time>2021-07-22T19:20:39Z</time>
      </trkpt>
      <trkpt lat="44.8083" lon="4.34941">
        <ele>1128.9</ele>
        <time>2021-07-22T19:21:58Z</time>
      </trkpt>
      <trkpt lat="44.8084" lon="4.35">
        <ele>1131.2</ele>
        <time>2021-07-22T19:22:56Z</time>
      </trkpt>
      <trkpt lat="44.8084" lon="4.35012">
        <ele>1132</ele>
        <time>2021-07-22T19:23:07Z</time>
      </trkpt>
      <trkpt lat="44.80816" lon="4.35074">
        <ele>1135.1</ele>
        <time>2021-07-22T19:24:14Z</time>
      </trkpt>
      <trkpt lat="44.80813" lon="4.35099">
        <ele>1136.5</ele>
        <time>2021-07-22T19:24:38Z</time>
      </trkpt>
      <trkpt lat="44.80803" lon="4.35123">
        <ele>1137.2</ele>
        <time>2021-07-22T19:25:04Z</time>
      </trkpt>
      <trkpt lat="44.80796" lon="4.35191">
        <ele>1139.9</ele>
        <time>2021-07-22T19:26:09Z</time>
      </trkpt>
      <trkpt lat="44.80808" lon="4.3521">
        <ele>1139.9</ele>
        <time>2021-07-22T19:26:33Z</time>
      </trkpt>
      <trkpt lat="44.80816" lon="4.35209">
        <ele>1139.6</ele>
        <time>2021-07-22T19:26:45Z</time>
      </trkpt>
      <trkpt lat="44.80813" lon="4.3524">
        <ele>1141</ele>
        <time>2021-07-22T19:27:15Z</time>
      </trkpt>
      <trkpt lat="44.80808" lon="4.35258">
        <ele>1142.5</ele>
        <time>2021-07-22T19:27:33Z</time>
      </trkpt>
      <trkpt lat="44.80809" lon="4.35288">
        <ele>1144.7</ele>
        <time>2021-07-22T19:28:01Z</time>
      </trkpt>
      <trkpt lat="44.8082" lon="4.35305">
        <ele>1145.5</ele>
        <time>2021-07-22T19:28:24Z</time>
      </trkpt>
    </trkseg>
  </trk>
</gpx>